createdAt,value
2022-08-20T00:03:29.356Z,0.95
2022-08-20T00:07:33.070Z,1.05
2022-08-20T00:11:38.163Z,0.95
2022-08-20T00:15:42.414Z,4.70
2022-08-20T00:19:46.306Z,1.40
2022-08-20T00:23:52.443Z,4.05
2022-08-20T00:27:58.375Z,1.27
2022-08-20T00:32:01.697Z,2.47
2022-08-20T00:36:10.032Z,1.08
2022-08-20T00:40:22.274Z,2.03
2022-08-20T00:44:28.595Z,0.82
2022-08-20T00:48:34.817Z,2.45
2022-08-20T00:52:38.621Z,1.52
2022-08-20T00:56:44.666Z,1.63
2022-08-20T01:00:51.327Z,2.45
2022-08-20T01:04:56.204Z,2.15
2022-08-20T01:09:02.618Z,1.45
2022-08-20T01:13:10.646Z,2.63
2022-08-20T01:17:26.084Z,1.50
2022-08-20T01:21:32.915Z,1.10
2022-08-20T01:25:46.710Z,3.05
2022-08-20T01:29:51.361Z,1.23
2022-08-20T01:33:56.644Z,2.38
2022-08-20T01:38:00.356Z,2.67
2022-08-20T01:42:10.628Z,1.80
2022-08-20T01:46:14.878Z,2.70
2022-08-20T01:50:25.347Z,2.03
2022-08-20T01:54:30.350Z,2.90
2022-08-20T01:58:40.077Z,1.73
2022-08-20T02:02:45.037Z,2.35
2022-08-20T02:06:56.581Z,6.65
2022-08-20T02:11:01.046Z,3.00
2022-08-20T02:15:08.196Z,3.95
2022-08-20T02:19:14.586Z,2.65
2022-08-20T02:23:18.221Z,3.40
2022-08-20T02:27:24.024Z,2.10
2022-08-20T02:31:32.953Z,1.85
2022-08-20T02:35:39.757Z,3.30
2022-08-20T02:39:43.185Z,4.72
2022-08-20T02:43:47.149Z,2.25
2022-08-20T02:47:53.107Z,2.55
2022-08-20T02:51:56.643Z,9.27
2022-08-20T02:56:00.547Z,3.15
2022-08-20T03:00:05.967Z,3.67
2022-08-20T03:04:11.036Z,4.15
2022-08-20T03:08:16.437Z,2.88
2022-08-20T03:12:19.697Z,4.38
2022-08-20T03:16:23.221Z,6.28
2022-08-20T03:20:29.140Z,3.17
2022-08-20T03:24:33.215Z,3.90
2022-08-20T03:28:37.493Z,5.60
2022-08-20T03:32:42.305Z,2.42
2022-08-20T03:36:50.390Z,3.75
2022-08-20T03:40:54.046Z,5.28
2022-08-20T03:44:59.310Z,1.58
2022-08-20T03:49:02.883Z,4.32
2022-08-20T03:53:08.263Z,2.78
2022-08-20T03:57:17.346Z,0.70
2022-08-20T04:01:45.009Z,0.20
2022-08-20T04:05:45.154Z,0.40
2022-08-20T04:09:50.218Z,0.43
2022-08-20T04:13:54.017Z,0.35
2022-08-20T04:17:57.857Z,0.40
2022-08-20T04:22:02.205Z,1.92
2022-08-20T04:26:07.550Z,1.15
2022-08-20T04:30:12.798Z,0.80
2022-08-20T04:34:20.025Z,3.20
2022-08-20T04:38:24.219Z,1.02
2022-08-20T04:42:29.884Z,0.82
2022-08-20T04:46:33.705Z,1.30
2022-08-20T04:50:39.408Z,0.95
2022-08-20T04:54:44.321Z,0.82
2022-08-20T04:58:49.459Z,1.50
2022-08-20T05:02:52.910Z,1.70
2022-08-20T05:06:56.456Z,2.20
2022-08-20T05:11:24.993Z,2.60
2022-08-20T05:15:26.605Z,2.33
2022-08-20T05:19:30.818Z,3.53
2022-08-20T05:23:34.699Z,1.75
2022-08-20T05:27:38.589Z,1.90
2022-08-20T05:31:43.713Z,2.53
2022-08-20T05:35:47.964Z,1.90
2022-08-20T05:39:51.732Z,2.97
2022-08-20T05:43:54.867Z,3.28
2022-08-20T05:47:59.995Z,1.45
2022-08-20T05:52:06.947Z,2.70
2022-08-20T05:56:11.559Z,1.92
2022-08-20T06:00:16.519Z,2.35
2022-08-20T06:04:29.156Z,1.40
2022-08-20T06:08:34.163Z,1.83
2022-08-20T06:12:37.636Z,1.20
2022-08-20T06:16:56.304Z,1.75
2022-08-20T06:21:03.091Z,1.67
2022-08-20T06:25:09.179Z,1.40
2022-08-20T06:29:12.276Z,1.15
2022-08-20T06:33:16.239Z,1.10
2022-08-20T06:37:27.419Z,1.52
2022-08-20T06:41:37.170Z,4.30
2022-08-20T06:45:41.901Z,2.33
2022-08-20T06:49:46.179Z,1.10
2022-08-20T06:53:51.200Z,3.78
2022-08-20T06:58:01.571Z,1.70
2022-08-20T07:02:04.875Z,1.00
2022-08-20T07:06:08.990Z,1.42
2022-08-20T07:10:17.411Z,0.75
2022-08-20T07:14:21.075Z,1.13
2022-08-20T07:18:28.335Z,1.70
2022-08-20T07:22:32.339Z,1.60
2022-08-20T07:26:37.490Z,1.55
2022-08-20T07:30:59.434Z,1.98
2022-08-20T07:35:18.610Z,3.20
2022-08-20T07:39:22.321Z,3.58
2022-08-20T07:43:28.492Z,1.75
2022-08-20T07:47:34.620Z,1.23
2022-08-20T07:51:38.484Z,1.70
2022-08-20T07:55:42.169Z,2.38
2022-08-20T08:00:03.137Z,4.03
2022-08-20T08:04:08.089Z,2.25
2022-08-20T08:08:14.852Z,2.47
2022-08-20T08:12:20.054Z,2.33
2022-08-20T08:16:25.770Z,2.10
2022-08-20T08:20:29.299Z,2.63
2022-08-20T08:24:32.408Z,3.30
2022-08-20T08:28:37.583Z,3.05
2022-08-20T08:33:03.804Z,2.80
2022-08-20T08:37:07.883Z,3.25
2022-08-20T08:41:19.776Z,3.10
2022-08-20T08:45:24.202Z,3.27
2022-08-20T08:49:38.194Z,3.55
2022-08-20T08:53:47.227Z,2.30
2022-08-20T08:57:51.353Z,2.28
2022-08-20T09:01:58.455Z,4.78
2022-08-20T09:06:05.327Z,5.53
2022-08-20T09:10:09.833Z,2.47
2022-08-20T09:14:14.003Z,2.35
2022-08-20T09:18:17.059Z,5.10
2022-08-20T09:22:26.614Z,2.72
2022-08-20T09:26:30.318Z,3.50
2022-08-20T09:30:33.595Z,3.63
2022-08-20T09:34:38.953Z,3.58
2022-08-20T09:38:43.887Z,2.72
2022-08-20T09:42:47.653Z,2.15
2022-08-20T09:46:50.838Z,3.65
2022-08-20T09:50:54.362Z,2.33
2022-08-20T09:55:01.984Z,2.70
2022-08-20T09:59:06.003Z,2.80
2022-08-20T10:03:09.267Z,4.30
2022-08-20T10:07:12.828Z,3.72
2022-08-20T10:11:20.950Z,3.08
2022-08-20T10:15:24.587Z,3.72
2022-08-20T10:19:32.655Z,2.45
2022-08-20T10:23:35.854Z,4.43
2022-08-20T10:27:41.168Z,3.92
2022-08-20T10:31:45.007Z,3.60
2022-08-20T10:35:48.719Z,3.75
2022-08-20T10:39:54.351Z,3.20
2022-08-20T10:43:59.755Z,3.58
2022-08-20T10:48:03.848Z,4.95
2022-08-20T10:52:07.623Z,4.57
2022-08-20T10:56:15.780Z,2.90
2022-08-20T11:00:20.976Z,5.63
2022-08-20T11:04:24.196Z,4.13
2022-08-20T11:08:34.329Z,5.97
2022-08-20T11:12:39.854Z,6.43
2022-08-20T11:16:48.175Z,4.40
2022-08-20T11:20:51.947Z,6.22
2022-08-20T11:24:55.947Z,9.10
2022-08-20T11:28:59.584Z,7.10
2022-08-20T11:33:04.549Z,7.55
2022-08-20T11:37:08.229Z,6.63
2022-08-20T11:41:11.882Z,6.30
2022-08-20T11:45:16.446Z,4.97
2022-08-20T11:49:21.838Z,5.20
2022-08-20T11:53:25.019Z,6.93
2022-08-20T11:57:30.353Z,7.93
2022-08-20T12:01:34.165Z,5.50
2022-08-20T12:05:39.496Z,6.50
2022-08-20T12:09:50.787Z,4.32
2022-08-20T12:13:59.815Z,6.23
2022-08-20T12:18:09.220Z,3.88
2022-08-20T12:22:23.146Z,4.15
2022-08-20T12:26:28.512Z,4.50
2022-08-20T12:30:32.531Z,4.95
2022-08-20T12:34:36.536Z,6.53
2022-08-20T12:38:41.459Z,4.82
2022-08-20T12:42:45.849Z,5.88
2022-08-20T12:46:49.163Z,5.97
2022-08-20T12:50:52.871Z,6.85
2022-08-20T12:54:58.883Z,7.15
2022-08-20T12:59:02.336Z,7.68
2022-08-20T13:03:08.120Z,6.28
2022-08-20T13:07:13.265Z,14.32
2022-08-20T13:11:17.937Z,8.18
2022-08-20T13:15:22.926Z,4.50
2022-08-20T13:19:26.687Z,7.43
2022-08-20T13:23:29.889Z,9.13
2022-08-20T13:27:38.851Z,6.43
2022-08-20T13:31:42.889Z,6.78
2022-08-20T13:35:46.562Z,5.57
2022-08-20T13:39:49.984Z,4.85
2022-08-20T13:43:55.322Z,6.38
2022-08-20T13:47:58.955Z,7.57
2022-08-20T13:52:02.547Z,6.75
2022-08-20T13:56:06.599Z,7.60
2022-08-20T14:00:16.694Z,7.88
2022-08-20T14:04:20.236Z,6.10
2022-08-20T14:08:25.839Z,6.75
2022-08-20T14:12:30.985Z,7.30
2022-08-20T14:16:38.001Z,10.00
2022-08-20T14:20:41.846Z,4.97
2022-08-20T14:24:50.245Z,7.95
2022-08-20T14:28:53.898Z,7.95
2022-08-20T14:32:58.957Z,4.78
2022-08-20T14:37:11.885Z,5.47
2022-08-20T14:41:15.433Z,6.95
2022-08-20T14:45:19.695Z,7.60
2022-08-20T14:49:24.876Z,4.50
2022-08-20T14:53:28.064Z,6.57
2022-08-20T14:57:31.603Z,11.07
2022-08-20T15:01:35.144Z,7.45
2022-08-20T15:05:41.281Z,5.50
2022-08-20T15:09:44.551Z,5.05
2022-08-20T15:13:48.113Z,4.85
2022-08-20T15:17:53.818Z,5.88
2022-08-20T15:21:59.016Z,5.38
2022-08-20T15:26:02.970Z,5.28
2022-08-20T15:30:08.872Z,4.75
2022-08-20T15:34:17.615Z,9.15
2022-08-20T15:38:22.673Z,5.22
2022-08-20T15:42:26.444Z,6.85
2022-08-20T15:46:31.627Z,7.57
2022-08-20T15:50:58.060Z,7.57
2022-08-20T15:55:03.853Z,6.90
2022-08-20T15:59:20.459Z,6.55
2022-08-20T16:03:52.259Z,6.80
2022-08-20T16:08:23.383Z,8.70
2022-08-20T16:12:35.187Z,5.57
2022-08-20T16:16:45.558Z,2.13
2022-08-20T16:20:51.578Z,2.58
2022-08-20T16:24:56.315Z,4.53
2022-08-20T16:29:11.386Z,3.55
2022-08-20T16:33:22.192Z,3.05
2022-08-20T16:37:31.280Z,3.58
2022-08-20T16:41:41.486Z,4.80
2022-08-20T16:45:51.972Z,2.10
2022-08-20T16:50:04.835Z,2.83
2022-08-20T16:58:11.742Z,6.85
2022-08-20T17:02:21.681Z,6.45
2022-08-20T17:06:30.850Z,5.70
2022-08-20T17:10:36.806Z,8.90
2022-08-20T17:14:49.770Z,10.23
2022-08-20T17:18:56.094Z,12.70
2022-08-20T17:23:12.330Z,9.80
2022-08-20T17:27:30.844Z,8.27
2022-08-20T17:31:38.814Z,8.77
2022-08-20T17:35:50.843Z,11.98
2022-08-20T17:39:57.112Z,13.90
2022-08-20T17:44:02.380Z,10.43
2022-08-20T17:48:09.750Z,9.90
2022-08-20T17:52:24.960Z,10.15
2022-08-20T17:56:36.476Z,12.40
2022-08-20T18:00:40.068Z,13.15
2022-08-20T18:04:45.178Z,11.32
2022-08-20T18:08:58.805Z,11.90
2022-08-20T18:13:13.061Z,10.00
2022-08-20T18:17:28.888Z,11.15
2022-08-20T18:21:57.793Z,12.30
2022-08-20T18:26:09.951Z,11.13
2022-08-20T18:30:19.856Z,11.60
2022-08-20T18:34:37.875Z,12.77
2022-08-20T18:38:44.007Z,13.15
2022-08-20T18:42:49.585Z,11.02
2022-08-20T18:46:55.448Z,13.20
2022-08-20T18:55:33.963Z,17.52
2022-08-20T18:59:44.736Z,15.88
2022-08-20T19:03:52.150Z,11.27
2022-08-20T19:07:58.245Z,15.45
2022-08-20T19:12:18.051Z,14.70
2022-08-20T19:16:28.050Z,11.35
2022-08-20T19:20:34.739Z,12.95
2022-08-20T19:24:43.765Z,16.45
2022-08-20T19:28:49.934Z,14.38
2022-08-20T19:32:54.655Z,14.35
2022-08-20T19:37:05.200Z,17.45
2022-08-20T19:41:31.049Z,14.57
2022-08-20T19:45:40.484Z,18.02
2022-08-20T19:49:58.735Z,17.85
2022-08-20T19:54:04.446Z,14.93
2022-08-20T19:58:25.978Z,14.65
2022-08-20T20:02:33.162Z,15.35
2022-08-20T20:06:42.810Z,17.27
2022-08-20T20:10:53.960Z,15.82
2022-08-20T20:14:57.471Z,15.32
2022-08-20T20:19:24.787Z,14.80
2022-08-20T20:23:45.792Z,16.50
2022-08-20T20:27:51.694Z,15.65
2022-08-20T20:31:59.128Z,15.27
2022-08-20T20:36:05.766Z,16.98
2022-08-20T20:40:21.238Z,17.15
2022-08-20T20:44:27.457Z,17.33
2022-08-20T20:48:40.145Z,18.83
2022-08-20T20:53:01.905Z,13.82
2022-08-20T20:57:09.469Z,13.05
2022-08-20T21:01:12.812Z,15.75
2022-08-20T21:05:17.657Z,15.60
2022-08-20T21:09:21.444Z,13.65
2022-08-20T21:13:26.569Z,10.55
2022-08-20T21:17:29.922Z,11.80
2022-08-20T21:21:33.205Z,10.73
2022-08-20T21:25:37.183Z,15.00
2022-08-20T21:29:41.820Z,11.50
2022-08-20T21:33:45.173Z,8.10
2022-08-20T21:37:48.385Z,10.77
2022-08-20T21:41:51.833Z,7.88
2022-08-20T21:45:56.410Z,7.90
2022-08-20T21:49:59.975Z,10.75
2022-08-20T21:54:03.385Z,7.47
2022-08-20T21:58:07.197Z,9.27
2022-08-20T22:02:12.500Z,12.30
2022-08-20T22:06:16.350Z,8.05
2022-08-20T22:10:20.386Z,9.77
2022-08-20T22:14:24.673Z,6.47
2022-08-20T22:18:29.876Z,5.03
2022-08-20T22:22:33.258Z,5.90
2022-08-20T22:26:38.660Z,7.45
2022-08-20T22:30:43.016Z,7.35
2022-08-20T22:34:48.086Z,6.45
2022-08-20T22:38:54.674Z,5.15
2022-08-20T22:42:58.078Z,5.72
2022-08-20T22:47:06.907Z,6.25
2022-08-20T22:51:16.354Z,5.35
2022-08-20T22:55:20.106Z,5.28
2022-08-20T22:59:25.112Z,5.63
2022-08-20T23:03:40.187Z,3.35
2022-08-20T23:07:46.609Z,4.82
2022-08-20T23:11:51.919Z,4.50
2022-08-20T23:15:55.605Z,3.70
2022-08-20T23:19:59.775Z,4.78
2022-08-20T23:24:05.058Z,6.03
2022-08-20T23:28:09.767Z,4.63
2022-08-20T23:32:14.249Z,2.63
2022-08-20T23:36:24.499Z,6.35
2022-08-20T23:40:30.996Z,3.08
2022-08-20T23:44:34.487Z,2.95
2022-08-20T23:48:38.476Z,2.95
2022-08-20T23:52:41.746Z,3.78
2022-08-20T23:56:46.961Z,2.30
